| time (UTC) | temp F | wind direction | speed MPH | gust MPH | rain 1hr in | rain 24hr in | rain mn in | humidity % | barometer mb |
| 20260509212513 | 52 | 183 | 6.0 | 15.0 | 0.00 | 0.38 | 0.38 | 91 | 1006.8 |
| 20260509211613 | 52 | 191 | 6.0 | 11.0 | 0.00 | 0.38 | 0.38 | 93 | 1006.9 |
| 20260509205813 | 51 | 188 | 7.0 | 14.0 | 0.00 | 0.38 | 0.38 | 93 | 1007.1 |
| 20260509204913 | 51 | 190 | 6.0 | 11.0 | 0.00 | 0.38 | 0.38 | 94 | 1007.1 |
| 20260509204013 | 51 | 191 | 6.0 | 12.0 | 0.01 | 0.38 | 0.38 | 94 | 1007.1 |
| 20260509203113 | 51 | 190 | 6.0 | 13.0 | 0.01 | 0.38 | 0.38 | 95 | 1007.2 |
| 20260509202213 | 51 | 190 | 5.0 | 11.0 | 0.01 | 0.38 | 0.38 | 96 | 1007.2 |
| 20260509201313 | 50 | 184 | 5.0 | 11.0 | 0.01 | 0.38 | 0.38 | 97 | 1007.4 |
| 20260509200413 | 50 | 186 | 2.0 | 10.0 | 0.01 | 0.38 | 0.38 | 97 | 1007.4 |
| 20260509195513 | 50 | 177 | 2.0 | 5.0 | 0.02 | 0.38 | 0.38 | 97 | 1007.5 |
| 20260509194613 | 50 | 178 | 2.0 | 7.0 | 0.04 | 0.38 | 0.38 | 97 | 1007.6 |
| 20260509193713 | 50 | 178 | 2.0 | 7.0 | 0.04 | 0.37 | 0.37 | 97 | 1007.8 |
| 20260509192813 | 50 | 178 | 2.0 | 5.0 | 0.05 | 0.37 | 0.37 | 97 | 1007.8 |
| 20260509191913 | 50 | 177 | 3.0 | 7.0 | 0.06 | 0.37 | 0.37 | 97 | 1007.9 |
| 20260509191013 | 50 | 182 | 3.0 | 7.0 | 0.06 | 0.37 | 0.37 | 97 | 1007.9 |
| 20260509190113 | 50 | 190 | 3.0 | 7.0 | 0.06 | 0.36 | 0.36 | 96 | 1007.9 |
| 20260509185213 | 49 | 171 | 2.0 | 7.0 | 0.05 | 0.35 | 0.35 | 96 | 1007.9 |
| 20260509182513 | 49 | 172 | 1.0 | 5.0 | 0.02 | 0.32 | 0.32 | 96 | 1007.9 |
| 20260509181613 | 49 | 176 | 1.0 | 3.0 | 0.01 | 0.31 | 0.31 | 96 | 1007.9 |
| 20260509180713 | 49 | 166 | 2.0 | 4.0 | 0.01 | 0.31 | 0.31 | 96 | 1007.9 |
| 20260509175813 | 49 | 170 | 2.0 | 6.0 | 0.00 | 0.30 | 0.30 | 96 | 1007.9 |
| 20260509174913 | 49 | 175 | 2.0 | 7.0 | 0.00 | 0.30 | 0.30 | 96 | 1007.9 |
| 20260509174013 | 49 | 178 | 3.0 | 7.0 | 0.00 | 0.30 | 0.30 | 96 | 1007.8 |
| 20260509173113 | 49 | 176 | 2.0 | 8.0 | 0.00 | 0.30 | 0.30 | 96 | 1007.9 |
| 20260509172213 | 49 | 161 | 2.0 | 7.0 | 0.00 | 0.30 | 0.30 | 96 | 1007.9 |
| 20260509171313 | 49 | 174 | 3.0 | 7.0 | 0.00 | 0.30 | 0.30 | 96 | 1007.8 |
| 20260509170413 | 49 | 176 | 2.0 | 9.0 | 0.00 | 0.30 | 0.30 | 96 | 1007.8 |
| 20260509165513 | 49 | 170 | 2.0 | 8.0 | 0.01 | 0.30 | 0.30 | 97 | 1007.8 |
| 20260509163713 | 49 | 174 | 3.0 | 7.0 | 0.01 | 0.30 | 0.30 | 97 | 1008.0 |
| 20260509162813 | 48 | 172 | 4.0 | 9.0 | 0.01 | 0.30 | 0.30 | 97 | 1008.0 |
| 20260509161913 | 48 | 173 | 3.0 | 10.0 | 0.02 | 0.30 | 0.30 | 97 | 1008.0 |
| 20260509161013 | 49 | 159 | 2.0 | 7.0 | 0.02 | 0.30 | 0.30 | 97 | 1008.2 |
| 20260509160113 | 49 | 154 | 2.0 | 13.0 | 0.02 | 0.29 | 0.29 | 97 | 1008.2 |
| 20260509155213 | 49 | 157 | 1.0 | 7.0 | 0.02 | 0.29 | 0.29 | 97 | 1008.4 |
| 20260509154313 | 49 | 147 | 1.0 | 4.0 | 0.03 | 0.29 | 0.29 | 98 | 1008.4 |
| 20260509153413 | 48 | 145 | 1.0 | 4.0 | 0.04 | 0.29 | 0.29 | 98 | 1008.6 |
| 20260509152513 | 48 | 133 | 1.0 | 4.0 | 0.05 | 0.29 | 0.29 | 98 | 1008.7 |
| 20260509151613 | 48 | 141 | 1.0 | 4.0 | 0.05 | 0.28 | 0.28 | 98 | 1008.9 |
| 20260509150713 | 48 | 149 | 1.0 | 5.0 | 0.06 | 0.28 | 0.28 | 98 | 1008.9 |
| 20260509145813 | 48 | 140 | 0.0 | 3.0 | 0.05 | 0.27 | 0.27 | 98 | 1009.0 |
| 20260509144913 | 48 | 0 | 0.0 | 4.0 | 0.04 | 0.26 | 0.26 | 98 | 1009.0 |
| 20260509144013 | 48 | 0 | 0.0 | 2.0 | 0.04 | 0.26 | 0.26 | 98 | 1009.2 |
| 20260509143113 | 47 | 0 | 0.0 | 1.0 | 0.03 | 0.25 | 0.25 | 98 | 1009.0 |
| 20260509142213 | 47 | 0 | 0.0 | 1.0 | 0.02 | 0.23 | 0.23 | 98 | 1009.0 |
| 20260509141313 | 47 | 0 | 0.0 | 1.0 | 0.02 | 0.23 | 0.23 | 98 | 1009.0 |
| 20260509140413 | 47 | 0 | 0.0 | 3.0 | 0.01 | 0.22 | 0.22 | 98 | 1009.0 |
| 20260509135513 | 47 | 0 | 0.0 | 0.0 | 0.02 | 0.22 | 0.22 | 98 | 1008.9 |
| 20260509134614 | 47 | 0 | 0.0 | 1.0 | 0.03 | 0.22 | 0.22 | 98 | 1009.0 |
| 20260509133713 | 47 | 0 | 0.0 | 0.0 | 0.03 | 0.22 | 0.22 | 97 | 1009.0 |
| 20260509132813 | 46 | 0 | 0.0 | 1.0 | 0.03 | 0.22 | 0.22 | 97 | 1009.1 |
| 20260509131913 | 46 | 0 | 0.0 | 1.0 | 0.03 | 0.21 | 0.21 | 97 | 1009.2 |
| 20260509131013 | 46 | 0 | 0.0 | 0.0 | 0.04 | 0.21 | 0.21 | 97 | 1009.3 |
| 20260509130113 | 46 | 0 | 0.0 | 1.0 | 0.04 | 0.20 | 0.20 | 97 | 1009.3 |
| 20260509125213 | 46 | 0 | 0.0 | 1.0 | 0.05 | 0.20 | 0.20 | 97 | 1009.4 |
| 20260509124313 | 46 | 0 | 0.0 | 0.0 | 0.04 | 0.19 | 0.19 | 97 | 1009.4 |
| 20260509123413 | 46 | 0 | 0.0 | 1.0 | 0.06 | 0.19 | 0.19 | 97 | 1009.4 |
| 20260509122513 | 46 | 0 | 0.0 | 1.0 | 0.06 | 0.19 | 0.19 | 97 | 1009.5 |
| 20260509121613 | 46 | 0 | 0.0 | 0.0 | 0.06 | 0.18 | 0.18 | 97 | 1009.5 |
| 20260509115813 | 45 | 0 | 0.0 | 2.0 | 0.05 | 0.16 | 0.16 | 97 | 1009.6 |
| 20260509114913 | 45 | 0 | 0.0 | 3.0 | 0.06 | 0.15 | 0.15 | 97 | 1009.6 |
| 20260509113113 | 45 | 0 | 0.0 | 1.0 | 0.06 | 0.13 | 0.13 | 97 | 1009.5 |
| 20260509111313 | 45 | 131 | 1.0 | 4.0 | 0.06 | 0.11 | 0.11 | 96 | 1009.5 |
| 20260509110413 | 45 | 125 | 0.0 | 4.0 | 0.06 | 0.11 | 0.11 | 96 | 1009.6 |
| 20260509103713 | 45 | 173 | 1.0 | 6.0 | 0.03 | 0.07 | 0.07 | 96 | 1009.6 |
| 20260509101913 | 44 | 0 | 0.0 | 1.0 | 0.02 | 0.06 | 0.06 | 96 | 1009.5 |
| 20260509101013 | 44 | 0 | 0.0 | 2.0 | 0.01 | 0.05 | 0.05 | 96 | 1009.3 |
| 20260509100113 | 44 | 0 | 0.0 | 2.0 | 0.01 | 0.05 | 0.05 | 96 | 1009.3 |
| 20260509095213 | 44 | 0 | 0.0 | 2.0 | 0.00 | 0.04 | 0.04 | 95 | 1009.3 |
| 20260509094313 | 44 | 0 | 0.0 | 0.0 | 0.00 | 0.04 | 0.04 | 95 | 1009.4 |
| 20260509092513 | 44 | 0 | 0.0 | 0.0 | 0.00 | 0.04 | 0.04 | 95 | 1009.4 |
| 20260509091613 | 44 | 0 | 0.0 | 1.0 | 0.00 | 0.04 | 0.04 | 95 | 1009.4 |
| 20260509090713 | 44 | 0 | 0.0 | 1.0 | 0.00 | 0.04 | 0.04 | 95 | 1009.5 |
| 20260509085813 | 44 | 0 | 0.0 | 1.0 | 0.00 | 0.04 | 0.04 | 95 | 1009.4 |
| 20260509084913 | 45 | 0 | 0.0 | 1.0 | 0.00 | 0.04 | 0.04 | 95 | 1009.4 |
| 20260509083113 | 45 | 0 | 0.0 | 1.0 | 0.01 | 0.04 | 0.04 | 95 | 1009.6 |
| 20260509082213 | 45 | 0 | 0.0 | 0.0 | 0.01 | 0.04 | 0.04 | 94 | 1009.7 |
| 20260509081313 | 44 | 127 | 0.0 | 1.0 | 0.01 | 0.04 | 0.04 | 94 | 1009.8 |
| 20260509075513 | 44 | 162 | 1.0 | 5.0 | 0.01 | 0.04 | 0.04 | 94 | 1009.9 |
| 20260509074613 | 44 | 0 | 0.0 | 2.0 | 0.00 | 0.03 | 0.03 | 93 | 1009.9 |
| 20260509073713 | 43 | 0 | 0.0 | 1.0 | 0.01 | 0.03 | 0.03 | 93 | 1009.9 |
| 20260509072813 | 43 | 0 | 0.0 | 0.0 | 0.01 | 0.03 | 0.03 | 92 | 1009.9 |
| 20260509071913 | 43 | 0 | 0.0 | 0.0 | 0.02 | 0.03 | 0.03 | 92 | 1009.9 |
| 20260509071013 | 44 | 0 | 0.0 | 0.0 | 0.02 | 0.03 | 0.03 | 92 | 1009.9 |
| 20260509070113 | 44 | 0 | 0.0 | 0.0 | 0.03 | 0.03 | 0.03 | 91 | 1009.8 |
| 20260509065213 | 44 | 0 | 0.0 | 0.0 | 0.03 | 0.03 | 0.03 | 91 | 1009.6 |
| 20260509063413 | 44 | 0 | 0.0 | 0.0 | 0.02 | 0.02 | 0.02 | 90 | 1010.0 |
| 20260509062513 | 44 | 0 | 0.0 | 0.0 | 0.02 | 0.02 | 0.02 | 90 | 1010.1 |
| 20260509060713 | 43 | 0 | 0.0 | 0.0 | 0.00 | 0.00 | 0.00 | 88 | 1010.3 |
| 20260509054013 | 43 | 0 | 0.0 | 0.0 | 0.00 | 0.00 | 0.00 | 86 | 1010.4 |
| 20260509053113 | 43 | 0 | 0.0 | 0.0 | 0.00 | 0.00 | 0.00 | 85 | 1010.5 |
| 20260509051313 | 43 | 0 | 0.0 | 0.0 | 0.00 | 0.00 | 0.00 | 84 | 1010.3 |
| 20260509050413 | 44 | 0 | 0.0 | 1.0 | 0.00 | 0.00 | 0.00 | 84 | 1010.3 |
| 20260509045513 | 44 | 0 | 0.0 | 1.0 | 0.00 | 0.00 | 0.00 | 84 | 1010.4 |
| 20260509043713 | 44 | 0 | 0.0 | 0.0 | 0.00 | 0.00 | 0.00 | 84 | 1010.5 |
| 20260509042813 | 44 | 0 | 0.0 | 0.0 | 0.00 | 0.00 | 0.00 | 83 | 1010.6 |
| 20260509041913 | 44 | 0 | 0.0 | 0.0 | 0.00 | 0.00 | 0.00 | 84 | 1010.7 |
| 20260509041013 | 44 | 0 | 0.0 | 0.0 | 0.00 | 0.00 | 0.00 | 83 | 1010.6 |
| 20260509040113 | 44 | 0 | 0.0 | 0.0 | 0.00 | 0.00 | 0.00 | 83 | 1010.7 |
| 20260509035213 | 44 | 0 | 0.0 | 0.0 | 0.00 | 0.00 | 0.00 | 83 | 1010.8 |
| 20260509034313 | 43 | 0 | 0.0 | 0.0 | 0.00 | 0.00 | 0.00 | 83 | 1010.7 |
| 20260509033413 | 43 | 0 | 0.0 | 0.0 | 0.00 | 0.00 | 0.00 | 84 | 1010.6 |
| 20260509031613 | 42 | 0 | 0.0 | 0.0 | 0.00 | 0.00 | 0.00 | 82 | 1010.6 |
| 20260509030713 | 42 | 0 | 0.0 | 0.0 | 0.00 | 0.00 | 0.00 | 80 | 1010.7 |
| 20260509025813 | 42 | 0 | 0.0 | 0.0 | 0.00 | 0.00 | 0.00 | 79 | 1010.7 |
| 20260509024913 | 43 | 0 | 0.0 | 0.0 | 0.00 | 0.00 | 0.00 | 79 | 1010.8 |
| 20260509024013 | 43 | 0 | 0.0 | 0.0 | 0.00 | 0.00 | 0.00 | 79 | 1010.8 |
| 20260509023113 | 44 | 0 | 0.0 | 0.0 | 0.00 | 0.00 | 0.00 | 79 | 1010.6 |
| 20260509022213 | 44 | 0 | 0.0 | 0.0 | 0.00 | 0.00 | 0.00 | 78 | 1010.7 |
| 20260509021313 | 44 | 0 | 0.0 | 0.0 | 0.00 | 0.00 | 0.00 | 76 | 1010.8 |
| 20260509020413 | 43 | 0 | 0.0 | 0.0 | 0.00 | 0.00 | 0.00 | 74 | 1010.8 |
| 20260509014613 | 44 | 0 | 0.0 | 1.0 | 0.00 | 0.00 | 0.00 | 72 | 1010.8 |
| 20260509013713 | 44 | 0 | 0.0 | 1.0 | 0.00 | 0.00 | 0.00 | 70 | 1010.7 |
| 20260509011013 | 45 | 0 | 0.0 | 1.0 | 0.00 | 0.00 | 0.00 | 67 | 1010.5 |
| 20260509010113 | 45 | 0 | 0.0 | 0.0 | 0.00 | 0.00 | 0.00 | 66 | 1010.4 |
| 20260509003413 | 46 | 0 | 0.0 | 0.0 | 0.00 | 0.00 | 0.00 | 67 | 1010.0 |
| 20260509002513 | 46 | 0 | 0.0 | 0.0 | 0.00 | 0.00 | 0.00 | 65 | 1009.8 |
| 20260509001613 | 46 | 0 | 0.0 | 1.0 | 0.00 | 0.00 | 0.00 | 65 | 1009.8 |
| 20260509000713 | 47 | 0 | 0.0 | 0.0 | 0.00 | 0.00 | 0.00 | 64 | 1009.8 |
| 20260508235813 | 48 | 0 | 0.0 | 0.0 | 0.00 | 0.00 | 0.00 | 63 | 1009.7 |
| 20260508234913 | 48 | 0 | 0.0 | 0.0 | 0.00 | 0.00 | 0.00 | 61 | 1009.6 |
| 20260508234013 | 49 | 0 | 0.0 | 0.0 | 0.00 | 0.00 | 0.00 | 59 | 1009.4 |
| 20260508233113 | 50 | 20 | 0.0 | 2.0 | 0.00 | 0.00 | 0.00 | 58 | 1009.3 |
| 20260508232213 | 50 | 13 | 1.0 | 2.0 | 0.00 | 0.00 | 0.00 | 58 | 1009.1 |
| 20260508230413 | 51 | 349 | 1.0 | 4.0 | 0.00 | 0.00 | 0.00 | 55 | 1009.2 |
| 20260508225513 | 52 | 0 | 0.0 | 4.0 | 0.00 | 0.00 | 0.00 | 55 | 1009.3 |
| 20260508224613 | 52 | 0 | 0.0 | 1.0 | 0.00 | 0.00 | 0.00 | 54 | 1009.3 |
| 20260508223713 | 54 | 327 | 1.0 | 4.0 | 0.00 | 0.00 | 0.00 | 52 | 1009.3 |
| 20260508222813 | 55 | 329 | 1.0 | 4.0 | 0.00 | 0.00 | 0.00 | 50 | 1009.3 |
| 20260508221913 | 56 | 328 | 1.0 | 5.0 | 0.00 | 0.00 | 0.00 | 52 | 1009.2 |
| 20260508221013 | 55 | 207 | 1.0 | 3.0 | 0.00 | 0.00 | 0.00 | 51 | 1009.2 |
| 20260508220113 | 55 | 0 | 0.0 | 3.0 | 0.00 | 0.00 | 0.00 | 49 | 1009.3 |
| 20260508215213 | 55 | 288 | 0.0 | 1.0 | 0.00 | 0.00 | 0.00 | 52 | 1009.4 |
| 20260508214313 | 53 | 2 | 2.0 | 4.0 | 0.00 | 0.00 | 0.00 | 54 | 1009.4 |
| 20260508213413 | 53 | 9 | 1.0 | 6.0 | 0.00 | 0.00 | 0.00 | 51 | 1009.4 |